Friday, October 31, 2014
17:53 UTC
  |  Log In   |  Register Free
Airport Search:

Gainesville Municipal Airport
(KGLE)

FAA data valid effective September 18, 2014 - November 13, 2014 (unless otherwise noted).

 
 
 
 
 
 
 
 
 
 
 
 
 
 

Current Aviation Weather for Gainesville Municipal Airport (KGLE)

The most recent METAR observation for KGLE was updated at: 1710
METAR Summary (Translated METAR)
KGLE
311655Z AUTO 01014G21KT 10SM CLR 14/05 A3038 RMK AO2 T01430046
KGYI
311655Z AUTO 36015G22KT 10SM CLR 15/07 A3037 RMK AO2 T01510070
(26.4 nm NE from KGLE)
KDTO
311653Z 02013KT 10SM CLR 16/05 A3036 RMK AO2 SLP279 T01610050
(27 nm SW from KGLE)
TAF
No TAF information found within 50 nm of KGLE
  Airport Weather Conditions for KGLE

 Current Weather at GLE
58° F
Fair
North winds at 16.1 mph
GLE NOAA Radar

Pressure: 30.38 in
Humidity: 52%
Wind: from the North at 16.1 gusting to 24.2 MPH (14 gusting to 21 KT)
Dew Point: 40.3°F
Visibility: 10.00 mi


Airport Weather Forecast for KGLE

Translated METAR and TAF for KGLE
Translated METAR for KGLE (1749 UTC 31 October 2014)
found at http://aviationweather.gov/adds/metars/
 
METAR text: KGLE 311735Z AUTO 01011G19KT 10SM CLR 15/05 A3038 RMK AO2 T01510049
Conditions at: KGLE (GAINESVILLE , TX, US) observed 1735 UTC 31 October 2014
Temperature: 15.1°C (59°F)
Dewpoint: 4.9°C (41°F) [RH = 50%]
Pressure (altimeter): 30.38 inches Hg (1028.9 mb)
Winds: from the N (10 degrees) at 13 MPH (11 knots; 5.7 m/s)
gusting to 22 MPH (19 knots; 9.9 m/s)
Visibility: 10 or more miles (16+ km)
Ceiling: at least 12,000 feet AGL
Clouds: sky clear below 12,000 feet AGL
Weather: automated observation with no human augmentation;
there may or may not be significant weather present at this time
Translated TAF for KGLE

There is no translated TAF available for this airport

Find All Airport Services Find A Hotel Find A Rental Car Find A Golf Course Find A Restaurant $100 Hamburger



FBO's on the Field
FBO Company Facility Photos Services Transportation Aviation Fuel Prices: Prices include tax
Catering Weather Repair Courtesy Rental Type 100LL JetA JetA+ MOGAS 8087
 
City of Gainesville Municipal Airport

This FBO has not yet been rated
FS:Phillips 66
Last Updated: Oct-25
Login to update fuel prices
SS:
Contact City of Gainesville Municipal AirportMore FBO Information
 
Add another FBO Facility Photos Catering Weather Repair Courtesy Rental Type 100LL JetA JetA+ MOGAS 8087
Services Transportation Aviation Fuel Prices: Prices include tax


model-print
model-print
model-print
model-print